< < Back
Terminal Aerodrome Forecast


Current Version              Previous Versions:   1  2  3  4  5  6  7  8  9  

Terminal Aerodrome Forecast

729
FTUS44 KMRX 280527
TAFCHA
TAF
KCHA 280527Z 2806/2906 00000KT P6SM SKC
     FM281500 VRB03KT P6SM SKC
     FM290000 00000KT P6SM SKC=

Latest METAR

993
SAUS80 KWBC 290800
MTRCHA
METAR KCHA 290753Z AUTO 00000KT 10SM CLR 22/18 A3003 RMK AO2 SLP161
T02170183 $


USA.gov is the U.S. government's official web portal to all federal, state and local government web resources and services.